Time;durP1;ratioP1;P1;durP2;ratioP2;P2;SDS_P1;SDS_P2;PMS_P1;PMS_P2;Temp;Humidity;BMP_temperature;BMP_pressure;BME280_temperature;BME280_humidity;BME280_pressure;Samples;Min_cycle;Max_cycle;Signal;HPM_P1;HPM_P2
2022/01/05 00:01:24;;;;;;;14.07;2.28;;;4.20;99.90;;;;;;5015413;28;20026;-55
2022/01/05 00:03:50;;;;;;;9.35;2.22;;;4.20;99.90;;;;;;5015542;28;20109;-52
2022/01/05 00:06:15;;;;;;;11.35;2.60;;;4.20;99.90;;;;;;5016331;28;20033;-51
2022/01/05 00:08:41;;;;;;;12.15;2.92;;;4.10;99.90;;;;;;5016679;28;20057;-51
2022/01/05 00:11:07;;;;;;;13.63;2.55;;;4.10;99.90;;;;;;5015398;28;20033;-54
2022/01/05 00:13:33;;;;;;;8.20;2.22;;;4.10;99.90;;;;;;5015339;28;20033;-50
2022/01/05 00:15:58;;;;;;;8.68;2.35;;;4.00;99.90;;;;;;5015114;28;20021;-53
2022/01/05 00:18:24;;;;;;;28.13;3.15;;;4.00;99.90;;;;;;5013591;28;20121;-51
2022/01/05 00:20:50;;;;;;;13.27;3.65;;;4.00;99.90;;;;;;5015218;28;20076;-54
2022/01/05 00:23:16;;;;;;;7.35;2.30;;;4.00;99.90;;;;;;5015190;28;20109;-52
2022/01/05 00:25:41;;;;;;;12.52;1.98;;;4.10;99.90;;;;;;5015013;28;20446;-54
2022/01/05 00:28:07;;;;;;;14.35;3.03;;;4.10;99.90;;;;;;5015036;28;20061;-52
2022/01/05 00:30:33;;;;;;;13.18;2.67;;;4.20;99.90;;;;;;5014711;28;20030;-50
2022/01/05 00:32:58;;;;;;;14.63;2.60;;;4.10;99.90;;;;;;5015137;28;20309;-49
2022/01/05 00:35:24;;;;;;;10.45;2.97;;;4.10;99.90;;;;;;5014968;28;20079;-51
2022/01/05 00:37:49;;;;;;;15.35;2.90;;;4.10;99.90;;;;;;5014819;28;20313;-50
2022/01/05 00:40:15;;;;;;;12.00;2.08;;;4.00;99.90;;;;;;5014858;28;20037;-51
2022/01/05 00:42:40;;;;;;;12.02;2.45;;;4.00;99.90;;;;;;5014954;28;20088;-50
2022/01/05 00:45:07;;;;;;;14.55;2.80;;;3.90;99.90;;;;;;5015139;28;20030;-53
2022/01/05 00:47:32;;;;;;;12.73;2.05;;;3.90;99.90;;;;;;5015159;28;20110;-54
2022/01/05 00:49:58;;;;;;;17.67;3.28;;;3.90;99.90;;;;;;5014901;28;20061;-51
2022/01/05 00:52:23;;;;;;;17.45;3.10;;;3.90;99.90;;;;;;5014576;28;20363;-50
2022/01/05 00:54:49;;;;;;;8.90;2.50;;;3.80;99.90;;;;;;5015344;28;20026;-54
2022/01/05 00:57:15;;;;;;;12.25;2.83;;;3.80;99.90;;;;;;5014808;28;20022;-54
2022/01/05 00:59:41;;;;;;;13.98;2.72;;;3.80;99.90;;;;;;5015112;28;20030;-50
2022/01/05 01:02:06;;;;;;;13.77;3.10;;;3.80;99.90;;;;;;5014353;28;20467;-51
2022/01/05 01:04:32;;;;;;;10.18;2.65;;;3.80;99.90;;;;;;5013588;28;20029;-51
2022/01/05 01:06:57;;;;;;;19.88;2.90;;;3.80;99.90;;;;;;5014354;28;20022;-50
2022/01/05 01:09:23;;;;;;;12.52;2.40;;;3.80;99.90;;;;;;5014775;28;20034;-51
2022/01/05 01:11:48;;;;;;;14.35;2.63;;;3.80;99.90;;;;;;5014323;28;20030;-49
2022/01/05 01:14:14;;;;;;;12.18;2.00;;;3.90;99.90;;;;;;5014401;28;20029;-53
2022/01/05 01:16:40;;;;;;;13.13;2.15;;;3.90;99.90;;;;;;5014200;28;20018;-50
2022/01/05 01:19:05;;;;;;;9.48;2.45;;;3.80;99.90;;;;;;5014278;28;20030;-52
2022/01/05 01:21:31;;;;;;;12.35;3.13;;;3.80;99.90;;;;;;5014032;28;20040;-53
2022/01/05 01:23:57;;;;;;;17.88;2.33;;;3.80;99.90;;;;;;5013919;28;20025;-49
2022/01/05 01:26:24;;;;;;;9.48;2.25;;;3.70;99.90;;;;;;5013892;28;20041;-51
2022/01/05 01:28:51;;;;;;;17.35;3.30;;;3.70;99.90;;;;;;5013751;28;20030;-51
2022/01/05 01:31:17;;;;;;;10.23;2.00;;;3.70;99.90;;;;;;5014359;28;20450;-52
2022/01/05 01:33:42;;;;;;;13.73;2.20;;;3.60;99.90;;;;;;5013689;28;20048;-52
2022/01/05 01:36:08;;;;;;;18.23;2.30;;;3.60;99.90;;;;;;5012291;28;20025;-50
2022/01/05 01:38:34;;;;;;;10.93;2.10;;;3.60;99.90;;;;;;5013542;28;20018;-50
2022/01/05 01:41:00;;;;;;;20.92;3.00;;;3.60;99.90;;;;;;5013512;28;20605;-50
2022/01/05 01:43:25;;;;;;;8.07;1.80;;;3.60;99.90;;;;;;5013617;28;20026;-50
2022/01/05 01:45:51;;;;;;;15.13;2.15;;;3.70;99.90;;;;;;5013736;28;20068;-50
2022/01/05 01:48:18;;;;;;;7.25;2.08;;;3.60;99.90;;;;;;5013716;28;20034;-50
2022/01/05 01:50:43;;;;;;;7.45;1.83;;;3.60;99.90;;;;;;5015022;28;20037;-50
2022/01/05 01:53:09;;;;;;;11.50;2.35;;;3.60;99.90;;;;;;5017116;28;20022;-50
2022/01/05 01:55:37;;;;;;;11.45;2.60;;;3.60;99.90;;;;;;5018205;28;20033;-51
2022/01/05 01:58:04;;;;;;;12.90;2.30;;;3.50;99.90;;;;;;5018662;28;20037;-50
2022/01/05 02:00:30;;;;;;;11.80;2.80;;;3.60;99.90;;;;;;5018534;28;20022;-52
2022/01/05 02:02:56;;;;;;;18.23;2.75;;;3.60;99.90;;;;;;5015619;28;20456;-50
2022/01/05 02:05:22;;;;;;;6.85;2.13;;;3.50;99.90;;;;;;5013221;28;20026;-51
2022/01/05 02:07:47;;;;;;;11.40;1.80;;;3.50;99.90;;;;;;5013167;28;20022;-55
2022/01/05 02:10:14;;;;;;;13.20;2.45;;;3.60;99.90;;;;;;5012972;28;20054;-54
2022/01/05 02:12:39;;;;;;;8.32;1.75;;;3.50;99.90;;;;;;5013412;28;20026;-55
2022/01/05 02:15:06;;;;;;;10.25;2.28;;;3.60;99.90;;;;;;5013006;28;20106;-51
2022/01/05 02:17:45;;;;;;;13.40;3.30;;;3.50;99.90;;;;;;5013120;28;20076;-51
2022/01/05 02:20:16;;;;;;;16.20;1.98;;;3.50;99.90;;;;;;5013331;28;20131;-51
2022/01/05 02:22:42;;;;;;;10.40;2.63;;;3.50;99.90;;;;;;5013300;28;20101;-53
2022/01/05 02:25:07;;;;;;;8.15;1.95;;;3.50;99.90;;;;;;5013163;28;20076;-53
2022/01/05 02:27:33;;;;;;;14.27;2.22;;;3.50;99.90;;;;;;5013025;28;20022;-54
2022/01/05 02:29:58;;;;;;;14.38;1.80;;;3.50;99.90;;;;;;5013050;28;20394;-54
2022/01/05 02:32:24;;;;;;;13.63;2.20;;;3.50;99.90;;;;;;5012982;28;20018;-51
2022/01/05 02:34:49;;;;;;;11.82;1.95;;;3.50;99.90;;;;;;5012908;28;20030;-52
2022/01/05 02:37:15;;;;;;;12.98;2.75;;;3.50;99.90;;;;;;5012883;28;20410;-55
2022/01/05 02:39:40;;;;;;;10.80;1.90;;;3.50;99.90;;;;;;5011321;28;20116;-51
2022/01/05 02:42:06;;;;;;;10.00;2.17;;;3.50;99.90;;;;;;5012882;28;20037;-50
2022/01/05 02:44:32;;;;;;;14.88;2.33;;;3.50;99.90;;;;;;5012419;28;20034;-52
2022/01/05 02:46:58;;;;;;;14.52;2.35;;;3.50;99.90;;;;;;5012598;28;20026;-53
2022/01/05 02:49:23;;;;;;;13.07;2.22;;;3.50;99.90;;;;;;5013012;28;20105;-53
2022/01/05 02:51:49;;;;;;;8.38;1.95;;;3.50;99.90;;;;;;5012286;28;20041;-54
2022/01/05 02:54:14;;;;;;;14.02;2.17;;;3.50;99.90;;;;;;5012447;28;20076;-54
2022/01/05 02:56:40;;;;;;;10.75;3.00;;;3.60;99.90;;;;;;5012386;28;20041;-53
2022/01/05 02:59:06;;;;;;;15.43;3.00;;;3.50;99.90;;;;;;5012274;28;20037;-51
2022/01/05 03:01:33;;;;;;;12.25;2.00;;;3.50;99.90;;;;;;5012573;28;20057;-54
2022/01/05 03:03:59;;;;;;;12.30;1.80;;;3.50;99.90;;;;;;5012682;28;20128;-55
2022/01/05 03:06:24;;;;;;;9.68;1.77;;;3.50;99.90;;;;;;5013225;28;20026;-54
2022/01/05 03:08:51;;;;;;;10.82;2.60;;;3.50;99.90;;;;;;5012639;28;20029;-50
2022/01/05 03:11:16;;;;;;;18.65;2.53;;;3.50;99.90;;;;;;5012383;28;20026;-51
2022/01/05 03:13:43;;;;;;;10.35;2.35;;;3.60;99.90;;;;;;5012193;28;20052;-53
2022/01/05 03:16:08;;;;;;;16.02;3.22;;;3.50;99.90;;;;;;5011049;28;20449;-52
2022/01/05 03:18:34;;;;;;;7.25;1.88;;;3.50;99.90;;;;;;5012497;28;20064;-53
2022/01/05 03:20:59;;;;;;;13.55;1.80;;;3.60;99.90;;;;;;5012513;28;20045;-53
2022/01/05 03:23:25;;;;;;;9.25;1.75;;;3.60;99.90;;;;;;5012171;28;20099;-52
2022/01/05 03:25:51;;;;;;;12.23;2.20;;;3.50;99.90;;;;;;5012692;28;20034;-53
2022/01/05 03:28:16;;;;;;;9.85;2.70;;;3.60;99.90;;;;;;5015583;28;20026;-51
2022/01/05 03:30:42;;;;;;;17.60;2.53;;;3.50;99.90;;;;;;5016848;28;20037;-53
2022/01/05 03:35:35;;;;;;;11.68;2.72;;;3.50;99.90;;;;;;5016663;28;20112;-51
2022/01/05 03:38:02;;;;;;;14.80;2.55;;;3.50;99.90;;;;;;5016320;28;20096;-50
2022/01/05 03:40:30;;;;;;;12.88;2.50;;;3.50;99.90;;;;;;5015884;28;20034;-51
2022/01/05 03:42:56;;;;;;;16.88;2.20;;;3.50;99.90;;;;;;5016073;28;20104;-52
2022/01/05 03:45:21;;;;;;;9.70;2.53;;;3.50;99.90;;;;;;5015732;28;20466;-53
2022/01/05 03:47:47;;;;;;;17.23;2.20;;;3.50;99.90;;;;;;5015725;28;20402;-50
2022/01/05 03:50:12;;;;;;;11.30;2.15;;;3.50;99.90;;;;;;5015570;28;20040;-51
2022/01/05 03:52:38;;;;;;;16.38;2.97;;;3.50;99.90;;;;;;5015540;28;20442;-52
2022/01/05 03:55:05;;;;;;;9.45;2.08;;;3.50;99.90;;;;;;5015541;28;20026;-52
2022/01/05 03:57:32;;;;;;;12.30;2.17;;;3.50;99.90;;;;;;5015165;28;20030;-50
2022/01/05 03:59:58;;;;;;;16.35;2.10;;;3.40;99.90;;;;;;5015441;28;20087;-50
2022/01/05 04:02:24;;;;;;;10.82;1.92;;;3.40;99.90;;;;;;5015553;28;20109;-50
2022/01/05 04:04:49;;;;;;;10.10;1.80;;;3.40;99.90;;;;;;5015390;28;20471;-51
2022/01/05 04:07:16;;;;;;;14.15;2.17;;;3.40;99.90;;;;;;5015678;28;20072;-52
2022/01/05 04:09:41;;;;;;;20.73;3.17;;;3.40;99.90;;;;;;5015283;28;20022;-51
2022/01/05 04:12:07;;;;;;;16.42;2.35;;;3.40;99.90;;;;;;5015026;28;20509;-53
2022/01/05 04:14:33;;;;;;;18.85;1.90;;;3.40;99.90;;;;;;5013709;28;20030;-52
2022/01/05 04:16:59;;;;;;;11.98;2.10;;;3.40;99.90;;;;;;5015092;28;20042;-53
2022/01/05 04:19:24;;;;;;;12.60;2.05;;;3.40;99.90;;;;;;5016022;28;20398;-53
2022/01/05 04:21:51;;;;;;;8.20;2.28;;;3.50;99.90;;;;;;5014633;28;20021;-51
2022/01/05 04:24:16;;;;;;;21.83;2.70;;;3.40;99.90;;;;;;5015279;28;20550;-54
2022/01/05 04:26:42;;;;;;;15.60;2.65;;;3.50;99.90;;;;;;5015196;28;20049;-52
2022/01/05 04:29:08;;;;;;;7.60;1.63;;;3.50;99.90;;;;;;5015079;28;20479;-53
2022/01/05 04:31:33;;;;;;;15.90;2.30;;;3.50;99.90;;;;;;5015266;28;20080;-53
2022/01/05 04:33:59;;;;;;;11.23;1.65;;;3.50;99.90;;;;;;5015391;28;20550;-49
2022/01/05 04:36:25;;;;;;;6.97;2.00;;;3.50;99.90;;;;;;5014727;28;20022;-53
2022/01/05 04:38:51;;;;;;;9.43;2.35;;;3.50;99.90;;;;;;5015440;28;20105;-54
2022/01/05 04:41:16;;;;;;;13.88;2.13;;;3.50;99.90;;;;;;5015111;28;20135;-55
2022/01/05 04:43:42;;;;;;;17.40;2.42;;;3.50;99.90;;;;;;5015340;28;20030;-51
2022/01/05 04:46:07;;;;;;;14.32;2.30;;;3.50;99.90;;;;;;5015115;28;20041;-54
2022/01/05 04:48:33;;;;;;;14.45;2.95;;;3.50;99.90;;;;;;5014907;28;20398;-53
2022/01/05 04:50:58;;;;;;;10.63;2.20;;;3.50;99.90;;;;;;5015362;28;20022;-54
2022/01/05 04:53:24;;;;;;;11.98;2.47;;;3.50;99.90;;;;;;5015149;28;20057;-53
2022/01/05 04:55:49;;;;;;;11.52;2.22;;;3.50;99.90;;;;;;5014275;28;20398;-55
2022/01/05 04:58:15;;;;;;;11.35;2.22;;;3.50;99.90;;;;;;5014723;28;20467;-54
2022/01/05 05:00:41;;;;;;;13.15;2.20;;;3.50;99.90;;;;;;5015015;28;20030;-54
2022/01/05 05:03:06;;;;;;;16.65;2.47;;;3.50;99.90;;;;;;5014972;28;20037;-51
2022/01/05 05:05:34;;;;;;;10.93;2.35;;;3.50;99.90;;;;;;5014559;28;20034;-54
2022/01/05 05:08:00;;;;;;;10.35;2.63;;;3.50;99.90;;;;;;5014793;28;20026;-50
2022/01/05 05:10:26;;;;;;;10.20;2.00;;;3.50;99.90;;;;;;5014550;28;20096;-54
2022/01/05 05:12:51;;;;;;;11.80;2.08;;;3.50;99.90;;;;;;5014600;28;20108;-53
2022/01/05 05:15:17;;;;;;;14.13;2.88;;;3.60;99.90;;;;;;5014640;28;20049;-54
2022/01/05 05:17:43;;;;;;;13.90;2.38;;;3.60;99.90;;;;;;5014370;28;20018;-52
2022/01/05 05:20:09;;;;;;;8.70;2.38;;;3.60;99.90;;;;;;5013208;28;20026;-55
2022/01/05 05:22:35;;;;;;;12.68;2.15;;;3.60;99.90;;;;;;5014081;28;20087;-54
2022/01/05 05:25:02;;;;;;;17.02;2.25;;;3.60;99.90;;;;;;5014005;28;20467;-53
2022/01/05 05:27:28;;;;;;;15.02;2.30;;;3.60;99.90;;;;;;5014284;28;20045;-48
2022/01/05 05:29:53;;;;;;;11.63;2.33;;;3.70;99.90;;;;;;5014289;28;20041;-53
2022/01/05 05:32:19;;;;;;;12.32;2.22;;;3.70;99.90;;;;;;5013741;28;20033;-54
2022/01/05 05:34:45;;;;;;;17.45;3.10;;;3.60;99.90;;;;;;5013738;28;20053;-50
2022/01/05 05:37:10;;;;;;;14.50;2.17;;;3.60;99.90;;;;;;5013680;28;20160;-50
2022/01/05 05:39:36;;;;;;;12.10;3.15;;;3.60;99.90;;;;;;5012765;28;20048;-50
2022/01/05 05:42:01;;;;;;;19.33;3.33;;;3.60;99.90;;;;;;5013493;28;20030;-52
2022/01/05 05:44:27;;;;;;;15.20;2.28;;;3.60;99.90;;;;;;5013559;28;20052;-50
2022/01/05 05:46:52;;;;;;;12.40;2.25;;;3.60;99.90;;;;;;5013135;28;20037;-52
2022/01/05 05:49:18;;;;;;;20.05;3.00;;;3.60;99.90;;;;;;5013141;28;20112;-50
2022/01/05 05:51:44;;;;;;;9.25;1.73;;;3.60;99.90;;;;;;5013015;28;20416;-54
2022/01/05 05:54:09;;;;;;;11.77;2.42;;;3.60;99.90;;;;;;5013467;28;20014;-50
2022/01/05 05:56:35;;;;;;;12.20;2.47;;;3.50;99.90;;;;;;5013107;28;20022;-50
2022/01/05 05:59:00;;;;;;;15.15;2.88;;;3.50;99.90;;;;;;5013219;28;20125;-50
2022/01/05 06:01:28;;;;;;;19.50;2.40;;;3.50;99.90;;;;;;5013878;28;20045;-51
2022/01/05 06:03:53;;;;;;;13.70;2.72;;;3.50;99.90;;;;;;5013717;28;20037;-53
2022/01/05 06:06:19;;;;;;;13.20;2.83;;;3.50;99.90;;;;;;5013950;28;20398;-54
2022/01/05 06:08:44;;;;;;;15.13;2.42;;;3.50;99.90;;;;;;5013119;28;20026;-50
2022/01/05 06:11:10;;;;;;;10.88;2.05;;;3.50;99.90;;;;;;5012973;28;20038;-49
2022/01/05 06:13:35;;;;;;;16.02;2.55;;;3.50;99.90;;;;;;5013356;28;20064;-49
2022/01/05 06:16:01;;;;;;;11.70;2.38;;;3.50;99.90;;;;;;5011213;28;20159;-49
2022/01/05 06:18:26;;;;;;;14.43;2.20;;;3.50;99.90;;;;;;5011541;28;20121;-53
2022/01/05 06:20:52;;;;;;;14.75;2.78;;;3.60;99.90;;;;;;5011531;28;20042;-51
2022/01/05 06:23:18;;;;;;;13.00;2.13;;;3.50;99.90;;;;;;5012542;28;20117;-53
2022/01/05 06:25:43;;;;;;;22.17;3.25;;;3.50;99.90;;;;;;5012191;28;20034;-50
2022/01/05 06:28:11;;;;;;;20.08;2.47;;;3.50;99.90;;;;;;5012165;28;20040;-50
2022/01/05 06:30:40;;;;;;;13.57;3.42;;;3.50;99.90;;;;;;5012870;28;20034;-50
2022/01/05 06:33:06;;;;;;;12.15;3.13;;;3.60;99.90;;;;;;5012605;28;20018;-51
2022/01/05 06:35:32;;;;;;;15.07;2.53;;;3.50;99.90;;;;;;5012723;28;20406;-49
2022/01/05 06:37:58;;;;;;;15.45;2.95;;;3.60;99.90;;;;;;5013079;28;20109;-54
2022/01/05 06:40:24;;;;;;;11.90;2.72;;;3.60;99.90;;;;;;5012732;28;20452;-50
2022/01/05 06:42:50;;;;;;;11.63;3.10;;;3.60;99.90;;;;;;5012779;28;20079;-51
2022/01/05 06:45:15;;;;;;;12.60;2.35;;;3.60;99.90;;;;;;5012646;28;20036;-53
2022/01/05 06:47:41;;;;;;;18.60;2.97;;;3.60;99.90;;;;;;5013230;28;20053;-56
2022/01/05 06:50:08;;;;;;;13.98;2.75;;;3.60;99.90;;;;;;5012858;28;20045;-52
2022/01/05 06:52:34;;;;;;;11.27;2.40;;;3.60;99.90;;;;;;5012598;28;20109;-51
2022/01/05 06:55:00;;;;;;;14.30;3.25;;;3.60;99.90;;;;;;5011410;28;20072;-50
2022/01/05 06:57:25;;;;;;;19.35;2.50;;;3.60;99.90;;;;;;5010839;28;20057;-50
2022/01/05 06:59:51;;;;;;;17.90;3.33;;;3.60;99.90;;;;;;5012376;28;20041;-53
2022/01/05 07:02:16;;;;;;;19.95;3.10;;;3.60;99.90;;;;;;5013572;28;20383;-51
2022/01/05 07:04:42;;;;;;;17.42;3.45;;;3.60;99.90;;;;;;5016663;28;20079;-52
2022/01/05 07:07:07;;;;;;;19.63;3.20;;;3.60;99.90;;;;;;5015052;28;20021;-53
2022/01/05 07:09:33;;;;;;;11.15;3.97;;;3.70;99.90;;;;;;5016840;28;20100;-50
2022/01/05 07:11:59;;;;;;;16.83;3.15;;;3.70;99.90;;;;;;5016394;28;20034;-51
2022/01/05 07:14:24;;;;;;;14.10;4.22;;;3.80;99.90;;;;;;5016726;28;20033;-57
2022/01/05 07:16:52;;;;;;;11.15;2.83;;;3.80;99.90;;;;;;5016539;28;20030;-51
2022/01/05 07:19:20;;;;;;;18.58;2.70;;;3.80;99.90;;;;;;5016722;28;20026;-55
2022/01/05 07:21:46;;;;;;;13.98;2.65;;;3.90;99.90;;;;;;5016705;28;20399;-52
2022/01/05 07:24:16;;;;;;;19.67;3.47;;;3.90;99.90;;;;;;5016449;28;20057;-51
2022/01/05 07:26:41;;;;;;;8.35;2.63;;;4.00;99.90;;;;;;5016484;28;20026;-55
2022/01/05 07:29:07;;;;;;;13.38;2.90;;;4.10;99.90;;;;;;5016429;28;20021;-52
2022/01/05 07:31:32;;;;;;;14.32;2.70;;;4.10;99.90;;;;;;5016402;28;20570;-52
2022/01/05 07:33:59;;;;;;;8.60;2.17;;;4.20;99.90;;;;;;5014555;28;20025;-51
2022/01/05 07:36:24;;;;;;;25.23;2.88;;;4.10;99.90;;;;;;5016100;28;20022;-55
2022/01/05 07:38:50;;;;;;;16.27;3.85;;;4.10;99.90;;;;;;5016019;28;20049;-55
2022/01/05 07:41:16;;;;;;;21.55;3.42;;;4.10;99.90;;;;;;5016009;28;20406;-53
2022/01/05 07:43:41;;;;;;;12.70;2.55;;;4.10;99.90;;;;;;5015825;28;20395;-51
2022/01/05 07:46:07;;;;;;;22.67;2.85;;;4.10;99.90;;;;;;5015983;28;20052;-54
2022/01/05 07:48:32;;;;;;;16.83;2.72;;;4.10;99.90;;;;;;5015649;28;20108;-52
2022/01/05 07:50:58;;;;;;;17.42;2.97;;;4.10;99.90;;;;;;5016137;28;20030;-55
2022/01/05 07:53:23;;;;;;;27.17;3.22;;;4.20;99.90;;;;;;5015971;28;20096;-55
2022/01/05 07:55:49;;;;;;;16.90;2.92;;;4.20;99.90;;;;;;5015976;28;20018;-52
2022/01/05 07:58:14;;;;;;;22.55;4.22;;;4.10;99.90;;;;;;5015544;28;20053;-52
2022/01/05 08:00:40;;;;;;;15.25;3.28;;;4.20;99.90;;;;;;5015570;28;20026;-53
2022/01/05 08:03:06;;;;;;;16.15;3.00;;;4.20;99.90;;;;;;5015286;28;20062;-51
2022/01/05 08:05:32;;;;;;;16.92;3.22;;;4.20;99.90;;;;;;5015444;28;20028;-54
2022/01/05 08:07:57;;;;;;;16.45;3.45;;;4.20;99.90;;;;;;5015318;28;20088;-53
2022/01/05 08:10:23;;;;;;;17.83;3.30;;;4.20;99.90;;;;;;5015692;28;20044;-55
2022/01/05 08:12:49;;;;;;;13.90;2.95;;;4.20;99.90;;;;;;5014846;28;20049;-53
2022/01/05 08:15:15;;;;;;;19.80;3.05;;;4.30;99.90;;;;;;5015566;28;20029;-50
2022/01/05 08:17:44;;;;;;;13.48;3.08;;;4.30;99.90;;;;;;5015205;28;20391;-53
2022/01/05 08:20:13;;;;;;;14.80;3.58;;;4.30;99.90;;;;;;5015207;28;20079;-54
2022/01/05 08:22:44;;;;;;;12.68;3.55;;;4.30;99.90;;;;;;5015270;28;20022;-53
2022/01/05 08:25:13;;;;;;;14.85;3.00;;;4.30;99.90;;;;;;5014951;28;20107;-55
2022/01/05 08:27:46;;;;;;;18.55;3.40;;;4.30;99.90;;;;;;5014994;28;20112;-55
2022/01/05 08:30:22;;;;;;;19.20;3.33;;;4.30;99.90;;;;;;5014112;28;20025;-53
2022/01/05 08:32:49;;;;;;;16.90;3.47;;;4.30;99.90;;;;;;5031717;28;20033;-52
2022/01/05 08:35:17;;;;;;;15.65;3.85;;;4.30;99.90;;;;;;5008916;28;20367;-53
2022/01/05 08:37:44;;;;;;;16.38;4.05;;;4.30;99.90;;;;;;5022184;28;20057;-55
2022/01/05 08:40:11;;;;;;;14.75;3.67;;;4.40;99.90;;;;;;5010529;28;20506;-52
2022/01/05 08:42:36;;;;;;;12.65;3.08;;;4.40;99.90;;;;;;5028984;28;20109;-53
2022/01/05 08:45:03;;;;;;;12.80;4.63;;;4.40;99.90;;;;;;5024036;28;20487;-51
2022/01/05 08:47:30;;;;;;;14.35;3.53;;;4.50;99.90;;;;;;5021432;28;20037;-57
2022/01/05 08:49:55;;;;;;;12.60;3.75;;;4.50;99.90;;;;;;5023223;28;20439;-50
2022/01/05 08:52:21;;;;;;;16.58;4.20;;;4.50;99.90;;;;;;5030346;28;20060;-52
2022/01/05 08:54:47;;;;;;;21.58;4.30;;;4.50;99.90;;;;;;5009635;28;20097;-50
2022/01/05 08:59:41;;;;;;;10.38;3.97;;;4.40;99.90;;;;;;5103045;22;20056;-70
2022/01/05 09:02:06;;;;;;;11.57;4.25;;;4.50;99.90;;;;;;5059368;28;20025;-70
2022/01/05 09:04:32;;;;;;;13.80;4.07;;;4.50;99.90;;;;;;5071595;28;20029;-71
2022/01/05 09:06:59;;;;;;;12.60;3.95;;;4.50;99.90;;;;;;5064253;28;20446;-71
2022/01/05 09:09:25;;;;;;;13.50;3.35;;;4.50;99.90;;;;;;5064036;28;20052;-70
2022/01/05 09:11:51;;;;;;;9.90;3.83;;;4.60;99.90;;;;;;5070745;28;20071;-71
2022/01/05 09:14:16;;;;;;;16.05;4.40;;;4.60;99.90;;;;;;5057455;28;20040;-71
2022/01/05 09:16:42;;;;;;;17.05;4.40;;;4.60;99.90;;;;;;5062360;28;20021;-70
2022/01/05 09:19:07;;;;;;;12.05;4.10;;;4.60;99.90;;;;;;5067009;28;20092;-71
2022/01/05 09:21:33;;;;;;;15.50;5.03;;;4.60;99.90;;;;;;5070986;28;20491;-71
2022/01/05 09:23:59;;;;;;;12.15;4.03;;;4.60;99.90;;;;;;5059758;28;20029;-71
2022/01/05 09:26:24;;;;;;;16.35;4.97;;;4.70;99.90;;;;;;5072964;28;20024;-70
2022/01/05 09:28:50;;;;;;;16.58;5.00;;;4.70;99.90;;;;;;5046204;28;20020;-72
2022/01/05 09:31:15;;;;;;;12.23;4.68;;;4.70;99.90;;;;;;5067656;28;20098;-71
2022/01/05 09:33:41;;;;;;;15.82;5.57;;;4.60;99.90;;;;;;5073487;28;20367;-72
2022/01/05 09:36:18;;;;;;;14.52;5.18;;;4.60;99.90;;;;;;5063892;28;20088;-71
2022/01/05 09:44:07;;;;;;;15.10;4.78;;;4.50;99.90;;;;;;5067823;28;20055;-70
2022/01/05 09:47:07;;;;;;;16.40;4.55;;;4.50;99.90;;;;;;5060058;28;20036;-72
2022/01/05 09:49:35;;;;;;;12.05;4.72;;;4.50;99.90;;;;;;5039441;28;20098;-72
2022/01/05 09:52:07;;;;;;;13.48;4.85;;;4.60;99.90;;;;;;5055872;28;20068;-73
2022/01/05 09:54:42;;;;;;;11.80;5.15;;;4.50;99.90;;;;;;5038769;28;20049;-72
2022/01/05 09:57:13;;;;;;;9.73;4.47;;;4.50;99.90;;;;;;5056590;28;20017;-71
2022/01/05 09:59:39;;;;;;;;;;;4.60;99.90;;;;;;5056068;28;20036;-72
2022/01/05 10:02:06;;;;;;;12.40;3.80;;;4.50;99.90;;;;;;5037172;28;19912;-72
2022/01/05 10:04:38;;;;;;;15.05;4.82;;;4.60;99.90;;;;;;5055494;28;20039;-72
2022/01/05 10:07:04;;;;;;;9.48;4.03;;;4.60;99.90;;;;;;5055663;28;20033;-71
2022/01/05 10:09:30;;;;;;;8.48;5.28;;;4.60;99.90;;;;;;5055347;28;20137;-71
2022/01/05 10:11:55;;;;;;;9.68;4.28;;;4.70;99.90;;;;;;5037591;28;20478;-71
2022/01/05 10:14:22;;;;;;;7.90;3.42;;;4.80;99.90;;;;;;5060900;28;20059;-71
2022/01/05 10:17:02;;;;;;;8.38;4.00;;;4.80;99.90;;;;;;5061671;28;20096;-71
2022/01/05 10:19:27;;;;;;;7.72;3.42;;;4.80;99.90;;;;;;5055506;28;20021;-70
2022/01/05 10:21:53;;;;;;;4.00;2.55;;;4.80;99.90;;;;;;5055461;28;20029;-71
2022/01/05 10:24:45;;;;;;;7.15;2.75;;;4.80;99.90;;;;;;5036922;28;20075;-71
2022/01/05 10:27:16;;;;;;;6.78;2.47;;;4.80;99.90;;;;;;5055240;28;20029;-73
2022/01/05 10:29:58;;;;;;;4.00;2.38;;;4.60;99.90;;;;;;5054913;28;20021;-73
2022/01/05 10:32:24;;;;;;;;;;;4.40;99.90;;;;;;5055547;28;20029;-73
2022/01/05 10:35:05;;;;;;;3.58;2.30;;;4.30;99.90;;;;;;5054918;28;20262;-72
2022/01/05 10:37:32;;;;;;;4.68;2.70;;;4.30;99.90;;;;;;5055240;28;20024;-72
2022/01/05 10:40:05;;;;;;;2.25;2.03;;;4.20;99.90;;;;;;5054782;28;20028;-70
2022/01/05 10:42:34;;;;;;;3.10;1.83;;;4.20;99.90;;;;;;5055398;28;20032;-72
2022/01/05 10:45:02;;;;;;;5.88;2.30;;;4.20;99.90;;;;;;5036210;28;20116;-73
2022/01/05 10:47:28;;;;;;;4.03;2.42;;;4.20;99.90;;;;;;5054966;28;20082;-71
2022/01/05 10:49:54;;;;;;;2.85;2.13;;;4.00;99.90;;;;;;5054697;28;20033;-72
2022/01/05 10:52:35;;;;;;;3.10;2.60;;;4.00;99.90;;;;;;5055275;28;20028;-72
2022/01/05 10:55:09;;;;;;;2.97;2.65;;;3.90;99.90;;;;;;5055533;28;20100;-72
2022/01/05 10:57:35;;;;;;;4.82;2.60;;;3.90;99.90;;;;;;5055227;28;20072;-70
2022/01/05 11:00:00;;;;;;;3.40;2.35;;;3.80;99.90;;;;;;5055782;28;20386;-72
2022/01/05 11:02:34;;;;;;;5.88;2.90;;;3.80;99.90;;;;;;5057181;28;20032;-72
2022/01/05 11:05:09;;;;;;;4.00;2.90;;;3.70;99.90;;;;;;5056545;28;20029;-72
2022/01/05 11:07:37;;;;;;;4.50;3.28;;;3.70;99.90;;;;;;5055651;28;20039;-71
2022/01/05 11:10:11;;;;;;;5.95;3.10;;;3.70;99.90;;;;;;5055994;28;20382;-72
2022/01/05 11:12:42;;;;;;;4.03;3.30;;;3.80;99.90;;;;;;5055628;28;20021;-72
2022/01/05 11:15:23;;;;;;;8.35;3.72;;;3.70;99.90;;;;;;5055714;28;20460;-72
2022/01/05 11:18:09;;;;;;;6.20;4.28;;;3.80;99.90;;;;;;5055926;28;20108;-71
2022/01/05 11:20:49;;;;;;;5.05;3.83;;;3.80;99.90;;;;;;5056174;28;20079;-72
2022/01/05 11:23:15;;;;;;;7.90;4.65;;;3.90;99.90;;;;;;5056983;28;20028;-71
2022/01/05 11:25:42;;;;;;;7.18;3.72;;;4.00;99.90;;;;;;5056258;28;20385;-71
2022/01/05 11:28:08;;;;;;;3.67;2.60;;;4.00;99.90;;;;;;5057119;28;20021;-71
2022/01/05 11:30:35;;;;;;;5.07;2.75;;;4.00;99.90;;;;;;5055269;28;20025;-72
2022/01/05 11:33:03;;;;;;;6.15;4.15;;;3.90;99.90;;;;;;5054765;28;20028;-71
2022/01/05 11:35:28;;;;;;;6.00;3.50;;;3.90;99.90;;;;;;5054943;28;20021;-71
2022/01/05 11:37:54;;;;;;;10.30;5.68;;;3.90;99.90;;;;;;5055043;28;20059;-72
2022/01/05 11:40:21;;;;;;;14.70;5.45;;;4.00;99.90;;;;;;5036345;28;20052;-71
2022/01/05 11:42:49;;;;;;;13.48;8.13;;;4.10;99.90;;;;;;5035487;28;20028;-70
2022/01/05 11:45:30;;;;;;;14.95;8.25;;;4.10;99.90;;;;;;5040453;28;20033;-72
2022/01/05 11:48:10;;;;;;;;;;;4.10;99.90;;;;;;5047950;28;20036;-71
2022/01/05 11:50:50;;;;;;;9.05;5.72;;;4.20;99.90;;;;;;5051733;28;19908;-70
2022/01/05 11:53:31;;;;;;;11.07;4.63;;;4.30;99.90;;;;;;5054303;28;20021;-71
2022/01/05 11:56:01;;;;;;;14.88;5.15;;;4.30;99.90;;;;;;5047461;28;20022;-71
2022/01/05 11:58:32;;;;;;;14.38;3.95;;;4.50;99.90;;;;;;5046019;28;20343;-73
2022/01/05 12:01:13;;;;;;;3.70;2.33;;;4.60;99.90;;;;;;5048370;28;20525;-72
2022/01/05 12:04:01;;;;;;;7.38;2.75;;;4.80;99.90;;;;;;5058406;28;20343;-72
2022/01/05 12:06:55;;;;;;;12.60;3.67;;;4.90;99.90;;;;;;5057402;28;20040;-72
2022/01/05 12:09:29;;;;;;;8.63;3.70;;;5.00;99.90;;;;;;5057591;28;20017;-72
2022/01/05 12:11:56;;;;;;;13.38;4.38;;;5.00;99.90;;;;;;5057336;28;20036;-73
2022/01/05 12:14:21;;;;;;;11.40;2.80;;;5.00;99.90;;;;;;5057120;28;20032;-73
2022/01/05 12:16:59;;;;;;;13.00;4.20;;;5.00;99.90;;;;;;5039035;28;20017;-72
2022/01/05 12:19:30;;;;;;;11.52;2.15;;;5.10;99.90;;;;;;5038236;28;20021;-72
2022/01/05 12:21:58;;;;;;;9.77;2.47;;;5.10;99.90;;;;;;5056435;28;20021;-72
2022/01/05 12:25:00;;;;;;;14.38;2.45;;;5.10;99.90;;;;;;5056500;28;20056;-72
2022/01/05 12:27:33;;;;;;;11.13;2.17;;;5.00;99.90;;;;;;5050862;28;20371;-72
2022/01/05 12:30:00;;;;;;;6.95;2.83;;;5.00;99.90;;;;;;5057092;28;20078;-71
2022/01/05 12:32:46;;;;;;;15.98;2.60;;;5.10;99.90;;;;;;5038418;28;20025;-72
2022/01/05 12:35:15;;;;;;;8.20;2.30;;;5.10;99.90;;;;;;5056601;28;20178;-72
2022/01/05 12:37:57;;;;;;;10.93;2.53;;;5.10;99.90;;;;;;5038397;28;20018;-72
2022/01/05 12:40:33;;;;;;;13.85;2.00;;;5.10;99.90;;;;;;5056695;28;20394;-72
2022/01/05 12:43:13;;;;;;;8.38;1.65;;;5.00;99.90;;;;;;5056323;28;20084;-71
2022/01/05 12:45:51;;;;;;;10.90;2.83;;;5.10;99.90;;;;;;5057075;28;20028;-72
2022/01/05 12:48:32;;;;;;;11.95;2.85;;;5.20;99.90;;;;;;5037904;28;20017;-72
2022/01/05 12:51:16;;;;;;;17.17;2.90;;;5.40;99.90;;;;;;5038933;28;20408;-72
2022/01/05 12:54:03;;;;;;;8.45;2.72;;;5.60;99.90;;;;;;5038611;28;20060;-72
2022/01/05 12:56:35;;;;;;;14.15;3.97;;;5.70;99.90;;;;;;5056376;28;20021;-72
2022/01/05 12:59:03;;;;;;;19.13;1.85;;;5.90;99.90;;;;;;5052068;28;20489;-72
2022/01/05 13:01:29;;;;;;;19.30;3.05;;;5.90;99.90;;;;;;5055565;28;20067;-72
2022/01/05 13:03:57;;;;;;;14.18;3.17;;;6.00;99.90;;;;;;5056413;28;20094;-72